createdAt,value
2022-11-10T00:00:19.887Z,89.8
2022-11-10T00:05:19.863Z,90.3
2022-11-10T00:10:19.914Z,90.3
2022-11-10T00:15:19.846Z,88.7
2022-11-10T00:20:20.056Z,87.8
2022-11-10T00:25:19.851Z,87.5
2022-11-10T00:30:19.849Z,87
2022-11-10T00:35:19.848Z,86.8
2022-11-10T00:40:19.880Z,86.4
2022-11-10T00:45:19.840Z,86.2
2022-11-10T00:50:19.846Z,86.2
2022-11-10T00:55:19.840Z,86.2
2022-11-10T01:00:19.869Z,86.1
2022-11-10T01:05:19.849Z,85.8
2022-11-10T01:10:19.888Z,86.2
2022-11-10T01:15:23.034Z,85.9
2022-11-10T01:20:19.862Z,85.2
2022-11-10T01:25:19.846Z,85
2022-11-10T01:30:19.870Z,84.8
2022-11-10T01:35:19.833Z,84.7
2022-11-10T01:40:19.981Z,84.5
2022-11-10T01:45:19.829Z,84.6
2022-11-10T01:50:19.831Z,84.6
2022-11-10T01:55:19.829Z,84.2
2022-11-10T02:00:19.858Z,84.2
2022-11-10T02:05:19.825Z,84.2
2022-11-10T02:10:19.879Z,84
2022-11-10T02:15:19.820Z,83.9
2022-11-10T02:20:19.849Z,83.9
2022-11-10T02:25:19.819Z,84
2022-11-10T02:30:21.942Z,83.8
2022-11-10T02:35:19.813Z,83.9
2022-11-10T02:40:19.836Z,83.8
2022-11-10T02:45:19.812Z,83.7
2022-11-10T02:50:19.816Z,83.6
2022-11-10T02:55:19.809Z,83.6
2022-11-10T03:00:19.837Z,83.5
2022-11-10T03:05:19.805Z,83.7
2022-11-10T03:10:20.111Z,83.9
2022-11-10T03:15:19.804Z,83.9
2022-11-10T03:20:19.821Z,84.1
2022-11-10T03:25:19.871Z,84.2
2022-11-10T03:30:19.800Z,84.2
2022-11-10T03:35:19.800Z,83.9
2022-11-10T03:40:19.818Z,83.8
2022-11-10T03:45:19.808Z,83.6
2022-11-10T03:50:19.795Z,83.6
2022-11-10T03:55:19.792Z,83.3
2022-11-10T04:00:19.825Z,83.2
2022-11-10T04:05:19.796Z,83.1
2022-11-10T04:10:19.876Z,83.3
2022-11-10T04:15:19.796Z,83.4
2022-11-10T04:20:19.839Z,83.7
2022-11-10T04:25:19.897Z,83.7
2022-11-10T04:30:19.779Z,83.7
2022-11-10T04:35:19.776Z,83.4
2022-11-10T04:40:19.808Z,83.6
2022-11-10T04:45:19.773Z,83.9
2022-11-10T04:50:19.778Z,84
2022-11-10T04:55:19.792Z,84.2
2022-11-10T05:00:19.815Z,84.4
2022-11-10T05:05:19.775Z,84.6
2022-11-10T05:10:19.771Z,84.9
2022-11-10T05:15:19.773Z,85.2
2022-11-10T05:20:19.806Z,85.5
2022-11-10T05:25:19.783Z,85.5
2022-11-10T05:30:19.773Z,85.9
2022-11-10T05:35:19.766Z,86.5
2022-11-10T05:40:19.796Z,87
2022-11-10T05:45:19.772Z,87.6
2022-11-10T05:50:19.764Z,88.2
2022-11-10T05:55:19.760Z,88.6
2022-11-10T06:00:19.778Z,89
2022-11-10T06:05:19.761Z,89.4
2022-11-10T06:10:19.781Z,89.5
2022-11-10T06:15:19.753Z,89.9
2022-11-10T06:20:19.778Z,89.8
2022-11-10T06:25:19.763Z,90.1
2022-11-10T06:30:19.757Z,90.4
2022-11-10T06:35:19.750Z,90.6
2022-11-10T06:40:19.773Z,90.6
2022-11-10T06:45:19.799Z,90.6
2022-11-10T06:50:19.749Z,90.8
2022-11-10T06:55:19.742Z,91
2022-11-10T07:00:19.769Z,91.1
2022-11-10T07:05:19.746Z,91.2
2022-11-10T07:10:19.854Z,91.6
2022-11-10T07:15:19.742Z,91.7
2022-11-10T07:20:19.771Z,92.1
2022-11-10T07:25:19.740Z,92.1
2022-11-10T07:30:19.736Z,92.3
2022-11-10T07:35:19.739Z,92.4
2022-11-10T07:40:19.767Z,92.4
2022-11-10T07:45:19.741Z,92.7
2022-11-10T07:50:19.731Z,92.9
2022-11-10T07:55:19.740Z,93.1
2022-11-10T08:00:19.770Z,93.1
2022-11-10T08:05:19.744Z,93.2
2022-11-10T08:10:19.782Z,93.3
2022-11-10T08:15:19.730Z,93.3
2022-11-10T08:20:19.749Z,93.3
2022-11-10T08:25:19.721Z,93.4
2022-11-10T08:30:19.719Z,93.4
2022-11-10T08:35:19.727Z,93.3
2022-11-10T08:40:19.746Z,93.4
2022-11-10T08:45:19.731Z,93.4
2022-11-10T08:50:19.751Z,93.4
2022-11-10T08:55:19.737Z,93.4
2022-11-10T09:00:19.785Z,93.6
2022-11-10T09:05:19.735Z,93.6
2022-11-10T09:10:19.796Z,93.8
2022-11-10T09:15:19.750Z,93.7
2022-11-10T09:20:19.756Z,93.4
2022-11-10T09:25:19.723Z,93.2
2022-11-10T09:30:19.737Z,93.1
2022-11-10T09:35:19.724Z,92.8
2022-11-10T09:40:19.807Z,92.4
2022-11-10T09:45:19.726Z,92.4
2022-11-10T09:50:19.773Z,92.3
2022-11-10T09:55:19.840Z,92.1
2022-11-10T10:00:19.843Z,92
2022-11-10T10:05:19.715Z,92.1
2022-11-10T10:10:19.863Z,92
2022-11-10T10:15:19.722Z,91.3
2022-11-10T10:20:19.832Z,91.1
2022-11-10T10:25:19.731Z,91.3
2022-11-10T10:30:19.821Z,90.9
2022-11-10T10:35:19.719Z,90.8
2022-11-10T10:40:19.747Z,90.4
2022-11-10T10:45:19.798Z,90.1
2022-11-10T10:50:19.727Z,90.4
2022-11-10T10:55:19.721Z,89.4
2022-11-10T11:00:19.763Z,88.6
2022-11-10T11:05:19.727Z,87.8
2022-11-10T11:10:19.817Z,87.6
2022-11-10T11:15:19.706Z,88
2022-11-10T11:20:19.728Z,88.1
2022-11-10T11:25:19.716Z,88.3
2022-11-10T11:30:19.782Z,87.3
2022-11-10T11:35:19.714Z,87.1
2022-11-10T11:40:19.726Z,87.1
2022-11-10T11:45:19.698Z,87.1
2022-11-10T11:50:19.729Z,87.2
2022-11-10T11:55:19.714Z,87.2
2022-11-10T12:00:19.818Z,87.8
2022-11-10T12:05:19.706Z,87
2022-11-10T12:10:19.821Z,85.7
2022-11-10T12:15:19.697Z,84.4
2022-11-10T12:20:19.907Z,84
2022-11-10T12:25:19.687Z,83.6
2022-11-10T12:30:19.719Z,83.7
2022-11-10T12:35:19.689Z,84.1
2022-11-10T12:40:19.740Z,83.9
2022-11-10T12:45:19.685Z,83.7
2022-11-10T12:50:19.695Z,83.3
2022-11-10T12:55:19.682Z,81.7
2022-11-10T13:00:23.808Z,81.4
2022-11-10T13:05:19.688Z,81
2022-11-10T13:10:19.733Z,80.8
2022-11-10T13:15:19.679Z,79.9
2022-11-10T13:20:30.732Z,79.7
2022-11-10T13:25:19.710Z,79.3
2022-11-10T13:30:19.687Z,78.5
2022-11-10T13:35:19.684Z,77.8
2022-11-10T13:40:19.712Z,78.5
2022-11-10T13:45:19.665Z,78.7
2022-11-10T13:50:19.671Z,78.7
2022-11-10T13:55:19.678Z,77.8
2022-11-10T14:00:19.706Z,77.7
2022-11-10T14:05:19.663Z,77.5
2022-11-10T14:10:19.735Z,77.5
2022-11-10T14:15:19.688Z,77.5
2022-11-10T14:20:19.706Z,77.2
2022-11-10T14:25:19.668Z,76.9
2022-11-10T14:30:19.669Z,77
2022-11-10T14:35:19.656Z,76.8
2022-11-10T14:40:19.782Z,76.8
2022-11-10T14:45:19.792Z,76.3
2022-11-10T14:50:19.654Z,76.5
2022-11-10T14:55:19.661Z,76.3
2022-11-10T15:00:19.767Z,76.2
2022-11-10T15:05:19.667Z,75.9
2022-11-10T15:10:19.670Z,76
2022-11-10T15:15:19.670Z,76.1
2022-11-10T15:20:19.771Z,76
2022-11-10T15:25:19.656Z,76.1
2022-11-10T15:30:19.638Z,76.1
2022-11-10T15:35:19.674Z,76.3
2022-11-10T15:40:19.779Z,76.6
2022-11-10T15:45:19.677Z,76.5
2022-11-10T15:50:19.674Z,76.5
2022-11-10T15:55:19.657Z,76.5
2022-11-10T16:00:19.775Z,76
2022-11-10T16:05:19.680Z,76.4
2022-11-10T16:10:19.662Z,76.4
2022-11-10T16:15:19.665Z,76.6
2022-11-10T16:20:19.783Z,76.5
2022-11-10T16:25:23.916Z,76.4
2022-11-10T16:30:19.651Z,76.4
2022-11-10T16:35:19.704Z,77.2
2022-11-10T16:40:19.764Z,76.7
2022-11-10T16:45:19.664Z,77
2022-11-10T16:50:19.659Z,77
2022-11-10T16:55:19.652Z,77.1
2022-11-10T17:00:19.768Z,77.2
2022-11-10T17:05:19.637Z,77.5
2022-11-10T17:10:19.655Z,77.4
2022-11-10T17:15:19.650Z,77.8
2022-11-10T17:20:19.768Z,77.6
2022-11-10T17:25:19.648Z,77.9
2022-11-10T17:30:19.634Z,77.9
2022-11-10T17:35:19.853Z,78.1
2022-11-10T17:40:19.757Z,78.2
2022-11-10T17:45:19.646Z,78.5
2022-11-10T17:50:19.645Z,78.9
2022-11-10T17:55:19.646Z,78.6
2022-11-10T18:00:19.759Z,78.5
2022-11-10T18:05:19.630Z,78.4
2022-11-10T18:10:19.626Z,78.3
2022-11-10T18:15:19.632Z,78.2
2022-11-10T18:20:19.745Z,78.2
2022-11-10T18:25:19.623Z,78.1
2022-11-10T18:30:19.622Z,78
2022-11-10T18:35:19.631Z,77.8
2022-11-10T18:40:19.755Z,77.7
2022-11-10T18:45:19.626Z,77.8
2022-11-10T18:50:19.629Z,77.7
2022-11-10T18:55:19.697Z,77.4
2022-11-10T19:00:19.812Z,77.2
2022-11-10T19:05:19.703Z,77.2
2022-11-10T19:10:19.689Z,77.3
2022-11-10T19:15:19.700Z,77
2022-11-10T19:20:19.812Z,76.6
2022-11-10T19:25:19.690Z,76.9
2022-11-10T19:30:19.704Z,77.2
2022-11-10T19:35:19.710Z,76.5
2022-11-10T19:40:19.840Z,76.5
2022-11-10T19:45:19.896Z,76.4
2022-11-10T19:50:19.857Z,76.5
2022-11-10T19:55:19.845Z,76.3
2022-11-10T20:00:19.980Z,75.9
2022-11-10T20:05:19.872Z,75.9
2022-11-10T20:10:19.888Z,76.1
2022-11-10T20:15:23.969Z,76.1
2022-11-10T20:20:19.861Z,76.1
2022-11-10T20:25:19.907Z,76.3
2022-11-10T20:30:23.433Z,76
2022-11-10T20:35:19.988Z,76.1
2022-11-10T20:40:42.670Z,75.9
2022-11-10T20:45:19.869Z,76.2
2022-11-10T20:50:24.113Z,76.1
2022-11-10T20:55:36.927Z,76.3
2022-11-10T21:00:19.860Z,76.3
2022-11-10T21:05:19.857Z,76.3
2022-11-10T21:10:19.860Z,76.4
2022-11-10T21:15:19.989Z,76.7
2022-11-10T21:20:19.857Z,76.8
2022-11-10T21:25:19.866Z,77.1
2022-11-10T21:30:19.865Z,77.2
2022-11-10T21:35:19.980Z,77.3
2022-11-10T21:40:19.840Z,77.6
2022-11-10T21:45:19.996Z,78
2022-11-10T21:50:19.847Z,78.3
2022-11-10T21:55:19.966Z,78.6
2022-11-10T22:00:19.845Z,78.9
2022-11-10T22:05:19.836Z,79.4
2022-11-10T22:10:19.942Z,79.9
2022-11-10T22:15:19.991Z,80
2022-11-10T22:20:19.858Z,80.4
2022-11-10T22:25:19.861Z,80.5
2022-11-10T22:30:19.874Z,80.9
2022-11-10T22:35:19.972Z,81.4
2022-11-10T22:40:19.869Z,81.6
2022-11-10T22:45:19.859Z,81.9
2022-11-10T22:50:19.860Z,82.2
2022-11-10T22:55:19.968Z,82.6
2022-11-10T23:00:19.851Z,82.5
2022-11-10T23:05:19.846Z,82.7
2022-11-10T23:10:19.851Z,83
2022-11-10T23:15:19.969Z,83.2
2022-11-10T23:20:19.846Z,83.6
2022-11-10T23:25:19.857Z,83.8
2022-11-10T23:30:19.922Z,84
2022-11-10T23:35:20.062Z,84.3
2022-11-10T23:40:19.960Z,84.8
2022-11-10T23:45:20.295Z,85
2022-11-10T23:50:20.004Z,85.2
2022-11-10T23:55:20.151Z,85.8
